createdAt,value
2019-03-18T00:00:33.640Z,20.72
2019-03-18T00:03:01.845Z,22.25
2019-03-18T00:05:30.409Z,20.62
2019-03-18T00:07:58.724Z,19.73
2019-03-18T00:10:26.967Z,19.90
2019-03-18T00:12:56.814Z,23.55
2019-03-18T00:15:25.043Z,22.52
2019-03-18T00:17:53.338Z,23.00
2019-03-18T00:20:21.897Z,22.07
2019-03-18T00:22:50.096Z,22.73
2019-03-18T00:25:18.652Z,21.68
2019-03-18T00:27:47.134Z,22.73
2019-03-18T00:30:17.459Z,21.15
2019-03-18T00:32:47.297Z,21.00
2019-03-18T00:35:15.528Z,20.10
2019-03-18T00:37:43.734Z,19.35
2019-03-18T00:40:16.182Z,17.87
2019-03-18T00:42:44.407Z,19.17
2019-03-18T00:45:15.034Z,18.70
2019-03-18T00:47:42.996Z,17.67
2019-03-18T00:50:13.141Z,17.05
2019-03-18T00:52:41.356Z,18.40
2019-03-18T00:55:10.052Z,26.52
2019-03-18T00:57:38.272Z,25.20
2019-03-18T01:00:12.943Z,26.48
2019-03-18T01:02:41.628Z,26.05
2019-03-18T01:05:09.853Z,25.27
2019-03-18T01:07:38.066Z,24.15
2019-03-18T01:10:09.840Z,24.92
2019-03-18T01:12:38.330Z,25.75
2019-03-18T01:15:08.565Z,24.77
2019-03-18T01:17:36.768Z,25.75
2019-03-18T01:20:06.940Z,25.68
2019-03-18T01:22:35.227Z,24.02
2019-03-18T01:25:03.621Z,24.02
2019-03-18T01:27:31.834Z,22.65
2019-03-18T01:30:00.055Z,22.50
2019-03-18T01:32:28.682Z,20.72
2019-03-18T01:34:57.212Z,21.15
2019-03-18T01:37:25.420Z,20.72
2019-03-18T01:39:53.968Z,19.27
2019-03-18T01:42:22.183Z,18.37
2019-03-18T01:44:50.390Z,18.20
2019-03-18T01:47:18.607Z,17.92
2019-03-18T01:49:46.810Z,16.90
2019-03-18T01:52:15.340Z,15.70
2019-03-18T01:54:43.544Z,16.75
2019-03-18T01:57:11.793Z,16.10
2019-03-18T01:59:40.001Z,15.55
2019-03-18T02:02:08.548Z,14.78
2019-03-18T02:04:37.008Z,15.25
2019-03-18T02:07:05.213Z,14.05
2019-03-18T02:09:33.457Z,14.38
2019-03-18T02:12:01.702Z,13.00
2019-03-18T02:14:29.917Z,13.68
2019-03-18T02:16:58.139Z,13.10
2019-03-18T02:19:26.348Z,12.98
2019-03-18T02:21:54.572Z,12.58
2019-03-18T02:24:22.792Z,12.35
2019-03-18T02:26:51.006Z,11.80
2019-03-18T02:29:19.311Z,12.70
2019-03-18T02:31:47.544Z,12.35
2019-03-18T02:34:15.752Z,14.70
2019-03-18T02:36:43.964Z,14.15
2019-03-18T02:39:12.177Z,13.65
2019-03-18T02:41:40.761Z,13.08
2019-03-18T02:44:08.969Z,13.30
2019-03-18T02:46:37.188Z,12.05
2019-03-18T02:49:05.392Z,12.00
2019-03-18T02:51:33.612Z,10.78
2019-03-18T02:54:01.829Z,11.80
2019-03-18T02:56:30.088Z,10.50
2019-03-18T02:58:58.270Z,10.53
2019-03-18T03:01:26.490Z,9.50
2019-03-18T03:03:54.700Z,9.53
2019-03-18T03:06:22.923Z,9.40
2019-03-18T03:08:51.128Z,8.50
2019-03-18T03:11:19.671Z,8.58
2019-03-18T03:13:47.867Z,8.10
2019-03-18T03:16:26.586Z,7.90
2019-03-18T03:18:46.348Z,7.80
2019-03-18T03:21:14.551Z,8.28
2019-03-18T03:23:42.758Z,7.55
2019-03-18T03:26:10.968Z,6.72
2019-03-18T03:28:39.459Z,7.37
2019-03-18T03:31:07.655Z,6.58
2019-03-18T03:33:35.860Z,6.42
2019-03-18T03:36:04.379Z,6.08
2019-03-18T03:38:32.860Z,6.20
2019-03-18T03:41:01.059Z,6.20
2019-03-18T03:43:29.603Z,6.12
2019-03-18T03:45:58.102Z,6.25
2019-03-18T03:48:26.318Z,6.12
2019-03-18T03:50:54.528Z,6.30
2019-03-18T03:53:22.746Z,6.25
2019-03-18T03:55:50.956Z,5.55
2019-03-18T03:58:19.143Z,5.03
2019-03-18T04:00:47.634Z,5.50
2019-03-18T04:03:15.847Z,4.58
2019-03-18T04:05:44.053Z,4.75
2019-03-18T04:08:12.256Z,4.75
2019-03-18T04:10:40.455Z,4.35
2019-03-18T04:13:08.660Z,4.78
2019-03-18T04:15:37.192Z,4.53
2019-03-18T04:18:05.389Z,4.25
2019-03-18T04:20:33.963Z,4.50
2019-03-18T04:23:02.157Z,4.08
2019-03-18T04:25:30.354Z,4.15
2019-03-18T04:27:58.882Z,3.72
2019-03-18T04:30:27.185Z,3.90
2019-03-18T04:32:55.744Z,4.20
2019-03-18T04:35:23.942Z,3.60
2019-03-18T04:37:52.161Z,3.60
2019-03-18T04:40:20.352Z,3.52
2019-03-18T04:42:48.838Z,3.30
2019-03-18T04:45:17.041Z,3.12
2019-03-18T04:47:45.247Z,3.22
2019-03-18T04:50:13.619Z,3.20
2019-03-18T04:52:41.834Z,3.00
2019-03-18T04:55:10.035Z,3.00
2019-03-18T04:57:38.244Z,2.95
2019-03-18T05:00:09.685Z,3.25
2019-03-18T05:02:38.222Z,3.00
2019-03-18T05:05:06.909Z,2.60
2019-03-18T05:07:35.391Z,2.50
2019-03-18T05:10:05.816Z,2.65
2019-03-18T05:12:34.029Z,2.58
2019-03-18T05:15:02.221Z,2.50
2019-03-18T05:17:30.436Z,2.67
2019-03-18T05:19:58.926Z,2.50
2019-03-18T05:22:27.133Z,2.92
2019-03-18T05:24:55.414Z,2.52
2019-03-18T05:27:23.898Z,2.47
2019-03-18T05:29:52.559Z,2.67
2019-03-18T05:32:20.770Z,2.90
2019-03-18T05:34:49.294Z,2.60
2019-03-18T05:37:17.522Z,2.42
2019-03-18T05:39:46.049Z,2.37
2019-03-18T05:42:14.247Z,2.37
2019-03-18T05:44:42.712Z,2.52
2019-03-18T05:47:10.909Z,2.20
2019-03-18T05:49:39.473Z,2.25
2019-03-18T05:52:07.666Z,2.40
2019-03-18T05:54:35.871Z,2.20
2019-03-18T05:57:04.066Z,2.08
2019-03-18T05:59:32.563Z,2.20
2019-03-18T06:02:02.403Z,2.05
2019-03-18T06:04:30.610Z,2.40
2019-03-18T06:06:58.807Z,2.20
2019-03-18T06:09:27.013Z,2.17
2019-03-18T06:11:56.839Z,2.27
2019-03-18T06:14:25.052Z,2.25
2019-03-18T06:16:53.253Z,2.20
2019-03-18T06:19:21.457Z,1.87
2019-03-18T06:21:49.705Z,2.17
2019-03-18T06:24:19.836Z,2.35
2019-03-18T06:26:48.311Z,1.95
2019-03-18T06:29:16.536Z,1.90
2019-03-18T06:31:44.974Z,1.90
2019-03-18T06:34:13.181Z,1.75
2019-03-18T06:36:41.394Z,1.95
2019-03-18T06:39:09.897Z,1.82
2019-03-18T06:41:38.092Z,1.67
2019-03-18T06:44:08.289Z,1.80
2019-03-18T06:46:36.509Z,1.92
2019-03-18T06:49:05.051Z,1.62
2019-03-18T06:51:33.249Z,1.77
2019-03-18T06:54:01.805Z,1.87
2019-03-18T06:56:30.049Z,1.90
2019-03-18T06:58:58.258Z,1.65
2019-03-18T07:01:26.462Z,1.92
2019-03-18T07:03:54.677Z,1.80
2019-03-18T07:06:22.885Z,1.70
2019-03-18T07:08:51.096Z,1.77
2019-03-18T07:11:19.287Z,1.60
2019-03-18T07:13:47.505Z,1.70
2019-03-18T07:16:15.700Z,1.75
2019-03-18T07:18:43.919Z,1.60
2019-03-18T07:21:14.604Z,1.87
2019-03-18T07:23:42.070Z,1.52
2019-03-18T07:26:10.289Z,1.80
2019-03-18T07:28:38.799Z,1.52
2019-03-18T07:31:07.003Z,1.60
2019-03-18T07:33:35.558Z,1.77
2019-03-18T07:36:03.754Z,1.75
2019-03-18T07:38:31.965Z,2.15
2019-03-18T07:41:00.494Z,1.70
2019-03-18T07:43:29.062Z,1.60
2019-03-18T07:45:57.266Z,2.10
2019-03-18T07:48:30.738Z,2.52
2019-03-18T07:50:55.403Z,2.62
2019-03-18T07:53:23.605Z,3.08
2019-03-18T07:55:52.102Z,2.15
2019-03-18T07:58:22.433Z,2.33
2019-03-18T08:00:50.407Z,2.62
2019-03-18T08:03:18.716Z,2.33
2019-03-18T08:05:46.923Z,2.42
2019-03-18T08:08:15.293Z,2.90
2019-03-18T08:10:43.798Z,2.40
2019-03-18T08:13:12.290Z,2.30
2019-03-18T08:15:40.490Z,2.37
2019-03-18T08:18:08.688Z,2.52
2019-03-18T08:20:38.533Z,2.17
2019-03-18T08:23:06.729Z,2.17
2019-03-18T08:25:35.193Z,2.00
2019-03-18T08:28:03.394Z,2.15
2019-03-18T08:30:31.589Z,2.22
2019-03-18T08:32:59.801Z,2.35
2019-03-18T08:35:28.004Z,2.37
2019-03-18T08:37:56.201Z,2.37
2019-03-18T08:40:24.394Z,1.92
2019-03-18T08:42:52.589Z,2.10
2019-03-18T08:45:20.795Z,2.22
2019-03-18T08:47:49.279Z,1.90
2019-03-18T08:50:17.478Z,2.35
2019-03-18T08:52:45.704Z,2.10
2019-03-18T08:55:13.873Z,2.37
2019-03-18T08:57:42.373Z,1.80
2019-03-18T09:00:12.877Z,2.37
2019-03-18T09:02:41.079Z,2.02
2019-03-18T09:05:09.851Z,2.27
2019-03-18T09:07:38.059Z,2.30
2019-03-18T09:10:15.949Z,2.20
2019-03-18T09:12:44.144Z,2.62
2019-03-18T09:15:12.700Z,2.50
2019-03-18T09:17:40.947Z,2.27
2019-03-18T09:20:13.600Z,2.17
2019-03-18T09:22:41.800Z,2.30
2019-03-18T09:25:11.664Z,2.17
2019-03-18T09:27:39.852Z,1.98
2019-03-18T09:30:11.603Z,2.02
2019-03-18T09:32:39.803Z,2.25
2019-03-18T09:35:08.013Z,2.20
2019-03-18T09:37:36.257Z,2.25
2019-03-18T09:40:07.484Z,2.20
2019-03-18T09:42:35.677Z,2.08
2019-03-18T09:45:06.384Z,2.25
2019-03-18T09:47:34.583Z,2.25
2019-03-18T09:50:03.204Z,2.87
2019-03-18T09:52:31.403Z,2.27
2019-03-18T09:54:59.628Z,2.25
2019-03-18T09:57:27.831Z,2.55
2019-03-18T09:59:56.304Z,2.17
2019-03-18T10:02:24.561Z,2.62
2019-03-18T10:04:52.742Z,2.40
2019-03-18T10:07:21.039Z,2.00
2019-03-18T10:09:49.242Z,5.75
2019-03-18T10:12:17.438Z,3.92
2019-03-18T10:14:45.659Z,7.62
2019-03-18T10:17:13.959Z,7.45
2019-03-18T10:19:42.511Z,7.05
2019-03-18T10:22:10.999Z,6.80
2019-03-18T10:24:39.587Z,7.10
2019-03-18T10:27:07.790Z,7.00
2019-03-18T10:29:35.992Z,6.40
2019-03-18T10:32:04.210Z,6.70
2019-03-18T10:34:32.411Z,7.12
2019-03-18T10:37:00.679Z,6.42
2019-03-18T10:39:28.886Z,6.47
2019-03-18T10:41:57.459Z,6.00
2019-03-18T10:44:25.692Z,6.35
2019-03-18T10:46:53.899Z,5.95
2019-03-18T10:49:22.136Z,6.25
2019-03-18T10:51:50.351Z,5.53
2019-03-18T10:54:30.004Z,5.83
2019-03-18T10:56:50.150Z,5.10
2019-03-18T10:59:18.320Z,5.53
2019-03-18T11:01:46.522Z,5.12
2019-03-18T11:04:14.724Z,4.90
2019-03-18T11:06:42.928Z,5.22
2019-03-18T11:09:11.500Z,4.85
2019-03-18T11:11:39.704Z,4.78
2019-03-18T11:14:07.904Z,5.08
2019-03-18T11:16:36.099Z,4.95
2019-03-18T11:19:04.303Z,4.47
2019-03-18T11:21:32.505Z,4.12
2019-03-18T11:24:00.700Z,4.30
2019-03-18T11:26:28.907Z,4.47
2019-03-18T11:28:57.108Z,4.10
2019-03-18T11:31:25.721Z,3.72
2019-03-18T11:33:54.981Z,4.35
2019-03-18T11:36:23.178Z,4.12
2019-03-18T11:38:51.730Z,4.10
2019-03-18T11:41:19.933Z,4.28
2019-03-18T11:43:48.387Z,4.05
2019-03-18T11:46:16.663Z,5.37
2019-03-18T11:48:44.961Z,5.05
2019-03-18T11:51:13.168Z,5.78
2019-03-18T11:53:41.658Z,5.22
2019-03-18T11:56:09.863Z,5.22
2019-03-18T11:58:38.062Z,5.05
2019-03-18T12:01:07.978Z,5.00
2019-03-18T12:03:36.182Z,5.08
2019-03-18T12:06:04.705Z,4.25
2019-03-18T12:08:32.933Z,4.90
2019-03-18T12:11:01.391Z,4.67
2019-03-18T12:13:29.841Z,4.67
2019-03-18T12:15:58.041Z,4.20
2019-03-18T12:18:26.248Z,5.15
2019-03-18T12:20:54.454Z,4.40
2019-03-18T12:23:22.659Z,4.20
2019-03-18T12:25:50.859Z,4.10
2019-03-18T12:28:19.138Z,4.42
2019-03-18T12:30:47.334Z,4.15
2019-03-18T12:33:15.845Z,4.10
2019-03-18T12:35:44.328Z,4.17
2019-03-18T12:38:12.810Z,3.75
2019-03-18T12:40:41.010Z,5.20
2019-03-18T12:43:09.568Z,5.05
2019-03-18T12:45:37.768Z,5.53
2019-03-18T12:48:05.980Z,5.42
2019-03-18T12:50:54.429Z,5.40
2019-03-18T12:53:05.828Z,5.25
2019-03-18T12:55:34.036Z,4.83
2019-03-18T12:58:02.276Z,4.60
2019-03-18T13:00:32.697Z,4.65
2019-03-18T13:03:00.906Z,4.87
2019-03-18T13:05:29.379Z,4.67
2019-03-18T13:07:57.593Z,4.50
2019-03-18T13:10:25.859Z,3.92
2019-03-18T13:12:54.066Z,4.22
2019-03-18T13:15:22.597Z,4.25
2019-03-18T13:17:50.792Z,4.22
2019-03-18T13:20:21.529Z,3.98
2019-03-18T13:22:49.962Z,3.50
2019-03-18T13:25:18.175Z,3.90
2019-03-18T13:27:46.374Z,3.70
2019-03-18T13:30:26.367Z,3.37
2019-03-18T13:32:54.568Z,3.67
2019-03-18T13:35:22.761Z,3.70
2019-03-18T13:37:50.971Z,3.65
2019-03-18T13:40:20.803Z,3.77
2019-03-18T13:42:49.005Z,3.45
2019-03-18T13:45:21.340Z,3.17
2019-03-18T13:47:51.163Z,3.40
2019-03-18T13:50:23.871Z,3.58
2019-03-18T13:52:52.244Z,3.35
2019-03-18T13:55:20.449Z,2.72
2019-03-18T13:57:48.662Z,2.98
2019-03-18T14:00:18.349Z,3.55
2019-03-18T14:02:46.556Z,3.27
2019-03-18T14:05:14.778Z,3.15
2019-03-18T14:07:42.983Z,3.22
2019-03-18T14:10:13.323Z,3.12
2019-03-18T14:12:41.522Z,2.67
2019-03-18T14:15:17.328Z,3.00
2019-03-18T14:17:45.535Z,2.80
2019-03-18T14:20:17.861Z,2.90
2019-03-18T14:22:46.064Z,2.80
2019-03-18T14:25:14.273Z,3.02
2019-03-18T14:27:42.905Z,3.37
2019-03-18T14:30:14.375Z,3.22
2019-03-18T14:32:42.857Z,3.87
2019-03-18T14:35:11.059Z,4.15
2019-03-18T14:37:39.338Z,4.25
2019-03-18T14:40:16.164Z,3.65
2019-03-18T14:42:44.673Z,4.00
2019-03-18T14:45:22.326Z,4.17
2019-03-18T14:47:50.527Z,3.90
2019-03-18T14:50:19.678Z,3.67
2019-03-18T14:52:48.045Z,4.00
2019-03-18T14:55:17.191Z,3.45
2019-03-18T14:57:45.464Z,3.40
2019-03-18T15:00:29.815Z,3.40
2019-03-18T15:02:58.013Z,3.40
2019-03-18T15:05:26.221Z,3.40
2019-03-18T15:07:54.421Z,3.47
2019-03-18T15:10:25.130Z,3.60
2019-03-18T15:12:53.349Z,3.52
2019-03-18T15:15:21.572Z,3.60
2019-03-18T15:17:49.781Z,3.95
2019-03-18T15:20:26.098Z,3.30
2019-03-18T15:22:54.318Z,3.40
2019-03-18T15:25:33.726Z,3.05
2019-03-18T15:28:02.275Z,3.37
2019-03-18T15:30:30.774Z,3.50
2019-03-18T15:32:59.547Z,3.27
2019-03-18T15:35:27.742Z,3.33
2019-03-18T15:37:55.943Z,3.30
2019-03-18T15:40:28.964Z,3.42
2019-03-18T15:42:57.155Z,3.27
2019-03-18T15:45:25.630Z,3.62
2019-03-18T15:47:53.841Z,3.60
2019-03-18T15:50:25.688Z,3.27
2019-03-18T15:55:23.995Z,3.30
2019-03-18T15:57:51.927Z,3.27
2019-03-18T16:00:27.616Z,3.92
2019-03-18T16:02:56.163Z,5.10
2019-03-18T16:05:24.372Z,5.70
2019-03-18T16:07:52.579Z,5.10
2019-03-18T16:10:21.042Z,3.98
2019-03-18T16:12:49.326Z,4.25
2019-03-18T16:15:19.130Z,4.22
2019-03-18T16:17:47.665Z,4.95
2019-03-18T16:20:19.652Z,6.85
2019-03-18T16:22:48.210Z,8.08
2019-03-18T16:25:16.561Z,8.55
2019-03-18T16:27:44.756Z,10.03
2019-03-18T16:30:18.370Z,11.70
2019-03-18T16:32:46.590Z,14.45
2019-03-18T16:35:16.419Z,12.37
2019-03-18T16:37:45.039Z,13.55
2019-03-18T16:40:15.033Z,14.30
2019-03-18T16:42:43.518Z,15.25
2019-03-18T16:45:13.768Z,18.20
2019-03-18T16:47:42.229Z,21.50
2019-03-18T16:50:15.426Z,21.42
2019-03-18T16:52:43.641Z,22.05
2019-03-18T16:55:11.922Z,19.40
2019-03-18T16:57:40.458Z,21.25
2019-03-18T17:00:17.328Z,21.68
2019-03-18T17:02:45.544Z,20.15
2019-03-18T17:05:13.758Z,20.65
2019-03-18T17:07:41.965Z,19.48
2019-03-18T17:10:14.762Z,19.57
2019-03-18T17:12:43.323Z,18.12
2019-03-18T17:15:13.412Z,18.20
2019-03-18T17:17:41.927Z,16.80
2019-03-18T17:20:14.913Z,16.42
2019-03-18T17:22:49.151Z,17.07
2019-03-18T17:25:20.326Z,15.30
2019-03-18T17:27:48.534Z,15.40
2019-03-18T17:30:18.179Z,14.80
2019-03-18T17:32:46.628Z,14.65
2019-03-18T17:35:14.846Z,14.75
2019-03-18T17:37:43.388Z,14.98
2019-03-18T17:40:16.508Z,15.72
2019-03-18T17:42:45.063Z,20.27
2019-03-18T17:45:15.379Z,19.10
2019-03-18T17:47:43.874Z,17.85
2019-03-18T17:50:15.089Z,16.90
2019-03-18T17:52:43.585Z,16.70
2019-03-18T17:55:14.940Z,16.97
2019-03-18T17:57:43.140Z,15.98
2019-03-18T18:00:16.253Z,15.93
2019-03-18T18:02:44.463Z,17.67
2019-03-18T18:05:15.721Z,17.57
2019-03-18T18:07:50.105Z,17.95
2019-03-18T18:10:18.318Z,18.45
2019-03-18T18:12:46.525Z,17.25
2019-03-18T18:15:14.740Z,15.85
2019-03-18T18:17:42.948Z,15.98
2019-03-18T18:20:13.665Z,20.08
2019-03-18T18:22:42.152Z,19.87
2019-03-18T18:25:12.983Z,20.95
2019-03-18T18:27:41.466Z,18.32
2019-03-18T18:30:14.488Z,18.55
2019-03-18T18:32:42.705Z,17.32
2019-03-18T18:35:11.569Z,17.70
2019-03-18T18:37:39.806Z,17.05
2019-03-18T18:40:14.303Z,16.15
2019-03-18T18:42:42.511Z,16.42
2019-03-18T18:45:12.506Z,15.00
2019-03-18T18:47:42.352Z,19.70
2019-03-18T18:50:11.924Z,24.70
2019-03-18T18:52:41.327Z,26.20
2019-03-18T18:55:10.983Z,26.70
2019-03-18T18:57:39.194Z,26.00
2019-03-18T19:00:10.666Z,28.45
2019-03-18T19:02:39.147Z,31.45
2019-03-18T19:05:09.951Z,32.28
2019-03-18T19:07:38.123Z,32.78
2019-03-18T19:10:09.087Z,30.85
2019-03-18T19:12:37.780Z,31.37
2019-03-18T19:15:11.816Z,28.35
2019-03-18T19:17:40.016Z,27.20
2019-03-18T19:20:11.263Z,28.55
2019-03-18T19:22:39.477Z,26.95
2019-03-18T19:25:10.777Z,27.65
2019-03-18T19:27:38.988Z,27.77
2019-03-18T19:30:19.223Z,27.02
2019-03-18T19:32:47.445Z,27.65
2019-03-18T19:35:15.732Z,27.32
2019-03-18T19:37:43.969Z,24.82
2019-03-18T19:40:20.617Z,26.00
2019-03-18T19:42:48.824Z,23.98
2019-03-18T19:45:17.033Z,24.07
2019-03-18T19:47:45.249Z,25.23
2019-03-18T19:50:19.300Z,25.55
2019-03-18T19:52:47.499Z,23.30
2019-03-18T19:55:17.348Z,23.92
2019-03-18T19:57:45.553Z,22.95
2019-03-18T20:00:22.094Z,23.25
2019-03-18T20:02:50.301Z,20.92
2019-03-18T20:05:19.094Z,23.83
2019-03-18T20:07:47.497Z,28.20
2019-03-18T20:10:17.892Z,30.08
2019-03-18T20:12:46.093Z,28.67
2019-03-18T20:15:15.445Z,27.75
2019-03-18T20:17:43.664Z,26.77
2019-03-18T20:20:22.886Z,26.10
2019-03-18T20:22:51.351Z,25.65
2019-03-18T20:25:19.828Z,24.52
2019-03-18T20:27:48.040Z,23.62
2019-03-18T20:30:20.204Z,23.77
2019-03-18T20:32:48.764Z,22.40
2019-03-18T20:35:21.828Z,22.17
2019-03-18T20:37:51.924Z,20.77
2019-03-18T20:40:19.968Z,21.00
2019-03-18T20:42:48.272Z,21.90
2019-03-18T20:45:17.524Z,19.98
2019-03-18T20:47:45.751Z,19.57
2019-03-18T20:50:19.829Z,19.90
2019-03-18T20:52:48.038Z,19.05
2019-03-18T20:55:16.263Z,18.85
2019-03-18T20:57:44.474Z,17.95
2019-03-18T21:00:18.247Z,16.67
2019-03-18T21:02:46.458Z,16.45
2019-03-18T21:05:14.663Z,16.20
2019-03-18T21:07:43.153Z,16.32
2019-03-18T21:10:16.287Z,15.95
2019-03-18T21:12:44.500Z,15.88
2019-03-18T21:15:14.211Z,14.10
2019-03-18T21:17:42.422Z,14.58
2019-03-18T21:20:13.503Z,14.53
2019-03-18T21:22:41.708Z,14.77
2019-03-18T21:25:09.921Z,14.10
2019-03-18T21:27:38.476Z,13.75
2019-03-18T21:30:09.924Z,13.50
2019-03-18T21:32:38.131Z,12.70
2019-03-18T21:35:08.194Z,12.10
2019-03-18T21:37:36.441Z,11.80
2019-03-18T21:40:08.250Z,11.38
2019-03-18T21:42:36.460Z,11.35
2019-03-18T21:45:07.469Z,11.53
2019-03-18T21:47:35.685Z,10.63
2019-03-18T21:50:05.435Z,11.00
2019-03-18T21:52:33.930Z,9.70
2019-03-18T21:55:02.133Z,10.70
2019-03-18T21:57:30.427Z,10.40
2019-03-18T21:59:58.637Z,10.05
2019-03-18T22:02:26.852Z,9.78
2019-03-18T22:04:55.079Z,9.70
2019-03-18T22:07:23.284Z,9.85
2019-03-18T22:09:51.539Z,9.00
2019-03-18T22:12:19.978Z,8.88
2019-03-18T22:14:48.193Z,9.08
2019-03-18T22:17:16.407Z,9.55
2019-03-18T22:19:44.978Z,10.60
2019-03-18T22:22:13.192Z,9.48
2019-03-18T22:24:45.638Z,10.20
2019-03-18T22:27:12.033Z,9.83
2019-03-18T22:29:40.198Z,10.05
2019-03-18T22:32:08.404Z,9.45
2019-03-18T22:34:36.603Z,9.18
2019-03-18T22:37:04.798Z,9.15
2019-03-18T22:39:33.349Z,9.10
2019-03-18T22:42:01.547Z,8.90
2019-03-18T22:44:29.753Z,8.80
2019-03-18T22:46:57.961Z,8.53
2019-03-18T22:49:26.474Z,8.10
2019-03-18T22:51:54.681Z,8.03
2019-03-18T22:54:22.922Z,7.87
2019-03-18T22:56:51.975Z,7.92
2019-03-18T22:59:20.853Z,7.53
2019-03-18T23:01:49.060Z,7.45
2019-03-18T23:04:17.627Z,7.67
2019-03-18T23:06:45.830Z,7.20
2019-03-18T23:09:14.037Z,6.75
2019-03-18T23:11:42.245Z,7.10
2019-03-18T23:14:10.446Z,6.92
2019-03-18T23:16:38.650Z,7.28
2019-03-18T23:19:06.854Z,7.37
2019-03-18T23:21:35.056Z,6.22
2019-03-18T23:24:03.526Z,6.37
2019-03-18T23:26:31.828Z,6.62
2019-03-18T23:29:00.037Z,6.92
2019-03-18T23:31:28.235Z,6.12
2019-03-18T23:33:56.446Z,6.40
2019-03-18T23:36:24.639Z,5.30
2019-03-18T23:38:52.852Z,5.75
2019-03-18T23:41:21.043Z,5.90
2019-03-18T23:43:49.628Z,5.97
2019-03-18T23:46:18.123Z,5.33
2019-03-18T23:48:46.331Z,5.78
2019-03-18T23:51:14.535Z,5.30
2019-03-18T23:53:42.740Z,5.75
2019-03-18T23:56:11.030Z,5.42
2019-03-18T23:58:39.230Z,5.28
